Terminal Aerodrome Forecast
Issued by NWS

Home | Current Version | Previous Version | Text Only | Print | Product List | Glossary Off
Versions: 1 2 3 4 5 6 7 8 9 10 11 12 13 14 15 16 17 18 19 20 21 22 23 24 25 26 27 28 29 30 31

000
FTUS43 KBIS 290248 AAB
TAFDIK
TAF AMD
KDIK 290248Z 2903/2924 08006KT P6SM SCT025
     FM290600 10004KT P6SM BKN050
     FM291100 14004KT P6SM BKN015
     FM291600 15005KT P6SM BKN050=

USA.gov is the U.S. government's official web portal to all federal, state and local government web resources and services.